Kitsap Lake, Washington
Current Conditions -  °F | °C
As of 3:35 AM on Friday 31 Oct 2014 (Local Time) from KPWT Reporting Station
Broken Clouds Broken Clouds  
Wind Chill: 52°   Ceiling: 2500
Heat Index: 52°   Visibility: 8mi
Dew Point: 50°   Wind: 3mph
Humidity: 94%   Direction: 150°SSE
Pressure: 29.75"   Gusts: NA
Location:  47.5691°N, 122.818°W
Report Text: KPWT 311035Z AUTO 15003KT 8SM FEW012 SCT019 BKN025 11/10 A2975 RMK AO1 P0003
Loading
Personal Weather Stations






























Interactive Weather Map
Tropical Storm Tracking
New forecast layout! Learn more

10-Day Weather Forecast

Advertisements
Track Severe Weather on mobile